Tropical Cyclones
[Index]
Main Index Home Page Stock Weather Photos Extreme Storms Discussion Storm News and Storm Chasing Reports Tropical Cyclones / Hurricanes / Typhoons Weather Data and Links Wild Fires / Bushfires Weather Observation Techniques Weather Picture Catalogue Tornado Pictures and Reports Stock Video Footage and DVDs for sale
Season 1988-1989 Tropical Cyclone 198906 Track Map
Season 1988-1989 Summaries: [BoM-AU] [JTWC-AU] [JTWC-SIO] [JTWC-SPAC] [JTWC-SH]
<<- Previous TC | JTWC 1988-1989 Season | Next TC ->>

click for intensity scale information  Lat/long Grid: Show Hide

 Date Labels: Show Hide

Joint Typhoon Warning Centre Cyclone Data

Name: 198906

06 Jan 1989 06:00 UTC to 15 Jan 1989 06:00 UTC

    date/time    lat    long     hPa   cat  kts
1989-01-06 06   14.8    44.1                  25          
1989-01-06 12   15.2    44.0                  25          
1989-01-06 18   15.6    43.9                  25          
1989-01-07 00   15.8    43.8                  25          
1989-01-07 06   16.1    43.7                  25          
1989-01-07 12   16.4    43.5                  25          
1989-01-07 18   16.6    43.3                  25          
1989-01-08 00   16.8    43.3                  25          
1989-01-08 06   16.9    43.1                  25          
1989-01-08 12   17.1    42.8                  25          
1989-01-08 18   17.2    42.4                  25          
1989-01-09 00   17.0    41.8                  25          
1989-01-09 06   16.6    41.3                  25          
1989-01-09 12   16.2    40.8                  30          
1989-01-09 18   16.0    40.7                  35          
1989-01-10 00   15.9    40.9            1     40          
1989-01-10 06   16.0    41.0            1     45          
1989-01-10 12   16.2    41.0            1     45          
1989-01-10 18   16.4    40.9            1     45          
1989-01-11 00   16.7    41.0            1     50          
1989-01-11 06   16.9    41.2            2     55          
1989-01-11 12   17.1    41.4            2     60          
1989-01-11 18   17.2    41.6            2     65          
1989-01-12 00   17.3    41.7            2     65          
1989-01-12 06   17.3    41.9            2     65          
1989-01-12 12   17.4    42.1            2     70          
1989-01-12 18   17.5    42.2            3     75          
1989-01-13 00   17.6    42.4            3     75          
1989-01-13 06   17.7    42.6            3     75          
1989-01-13 12   17.8    42.7            3     75          
1989-01-13 18   17.9    42.8            3     75          
1989-01-14 00   18.4    43.3            3     75          
1989-01-14 06   18.9    43.8            3     75          
1989-01-14 12   19.6    44.3            3     75          
1989-01-14 18   20.3    44.6            2     65          
1989-01-15 00   20.6    44.7            1     40          
1989-01-15 06   21.0    44.8                  30          
Winds are 1-min average.

Tropical cyclone tracks developed by Michael Bath using data from the Joint Typhoon Warning Centre Best Tracks and Google Maps.


[Australian Severe Weather index] [Copyright Notice] [Email Contacts] [Search This Site] [Privacy Policy]
Document: tropical_cyclone_198906.htm Updated: 18 September 2016